createdAt,value
2022-11-08T07:25:12.156Z,9.18
2022-11-08T07:26:13.503Z,9.78
2022-11-08T07:27:15.501Z,10.12
2022-11-08T07:34:15.272Z,9.44
2022-11-08T07:35:16.757Z,9.42
2022-11-08T07:43:53.976Z,9.59
2022-11-08T07:44:55.349Z,10.02
2022-11-08T07:45:59.335Z,10.56
2022-11-08T07:47:00.666Z,11.05
2022-11-08T07:48:11.028Z,11.76
2022-11-08T07:49:12.704Z,11.98
2022-11-08T07:50:17.691Z,11.82
2022-11-08T07:51:19.326Z,12.12
2022-11-08T07:52:20.679Z,12.81
2022-11-08T07:53:22.791Z,13.48
2022-11-08T07:54:24.172Z,14.16
2022-11-08T07:55:26.686Z,14.01
2022-11-08T07:56:28.035Z,14.52
2022-11-08T07:57:29.542Z,14.74
2022-11-08T07:58:31.002Z,14.44
2022-11-08T07:59:32.328Z,14.96
2022-11-08T08:00:38.613Z,15.20
2022-11-08T08:01:40.014Z,15.65
2022-11-08T08:02:41.818Z,15.59
2022-11-08T08:03:43.335Z,15.57
2022-11-08T08:04:48.312Z,15.95
2022-11-08T08:05:59.501Z,15.46
2022-11-08T08:07:02.055Z,14.42
2022-11-08T08:08:04.033Z,14.03
2022-11-08T08:09:05.633Z,14.08
2022-11-08T08:10:07.485Z,15.09
2022-11-08T08:11:09.571Z,15.31
2022-11-08T08:12:11.079Z,15.11
2022-11-08T08:13:12.467Z,15.63
2022-11-08T08:14:13.987Z,15.18
2022-11-08T08:15:15.606Z,15.02
2022-11-08T08:16:17.195Z,14.88
2022-11-08T08:17:18.768Z,14.21
2022-11-08T08:18:21.637Z,13.88
2022-11-08T08:19:23.172Z,13.96
2022-11-08T08:20:24.666Z,13.62
2022-11-08T08:21:28.896Z,13.24
2022-11-08T08:22:30.419Z,12.71
2022-11-08T08:23:31.782Z,12.47
2022-11-08T08:24:33.295Z,12.27
2022-11-08T08:25:35.243Z,11.79
2022-11-08T08:26:40.724Z,11.69
2022-11-08T08:27:54.115Z,11.57
2022-11-08T08:28:55.484Z,11.68
2022-11-08T08:29:57.091Z,11.66
2022-11-08T08:30:58.745Z,11.62
2022-11-08T08:32:00.531Z,11.32
2022-11-08T08:33:26.940Z,11.36
2022-11-08T08:34:25.752Z,11.30
2022-11-08T08:35:27.097Z,11.19
2022-11-08T08:36:28.618Z,10.98
2022-11-08T08:37:29.947Z,10.84
2022-11-08T08:38:32.783Z,10.78
2022-11-08T08:39:34.145Z,10.81
2022-11-08T08:40:35.507Z,10.92
2022-11-08T08:41:36.994Z,10.85
2022-11-08T08:42:38.344Z,11.05
2022-11-08T08:43:39.844Z,11.02
2022-11-08T08:44:41.206Z,11.03
2022-11-08T08:58:02.279Z,11.48
2022-11-08T09:01:47.127Z,11.08
2022-11-08T09:02:48.790Z,11.09
2022-11-08T09:03:50.438Z,11.14
2022-11-08T09:04:51.793Z,11.09
2022-11-08T09:05:53.223Z,11.08
2022-11-08T09:06:55.243Z,11.02
2022-11-08T09:07:56.777Z,10.97
2022-11-08T09:08:58.117Z,11.07
2022-11-08T09:09:59.578Z,11.24
2022-11-08T09:11:01.798Z,11.38
2022-11-08T09:12:03.483Z,11.40
2022-11-08T09:13:08.557Z,11.33
2022-11-08T09:14:09.930Z,11.42
2022-11-08T09:15:11.382Z,11.41
2022-11-08T09:16:14.229Z,11.39
2022-11-08T09:17:16.554Z,11.25
2022-11-08T09:18:18.756Z,11.16
2022-11-08T09:19:20.129Z,11.14
2022-11-08T09:20:22.355Z,11.17
2022-11-08T09:21:23.809Z,11.21
2022-11-08T09:22:25.258Z,11.21
2022-11-08T09:23:26.714Z,11.10
2022-11-08T09:24:28.052Z,11.28
2022-11-08T09:25:29.779Z,11.27
2022-11-08T09:26:31.371Z,11.16
2022-11-08T09:27:33.063Z,11.35
2022-11-08T09:28:36.144Z,11.38
2022-11-08T09:29:37.511Z,11.69
2022-11-08T09:30:39.027Z,11.97
2022-11-08T09:31:40.735Z,11.92
2022-11-08T09:35:09.942Z,11.70
2022-11-08T09:36:13.596Z,11.94
2022-11-08T09:37:14.963Z,12.27
2022-11-08T09:38:17.479Z,12.46
2022-11-08T09:39:19.192Z,12.87
2022-11-08T09:40:32.908Z,13.50
2022-11-08T09:41:36.967Z,13.46
2022-11-08T09:42:54.587Z,13.09
2022-11-08T09:44:50.952Z,12.66
2022-11-08T09:45:53.695Z,12.43
2022-11-08T09:47:01.722Z,12.31
2022-11-08T09:48:06.459Z,12.35
2022-11-08T09:49:16.156Z,12.24
2022-11-08T09:50:25.676Z,12.33
2022-11-08T09:51:29.896Z,12.40
2022-11-08T09:52:33.709Z,12.23
2022-11-08T09:53:47.304Z,12.30
2022-11-08T09:54:50.593Z,12.41
2022-11-08T09:56:01.972Z,12.55
2022-11-08T09:57:05.332Z,12.60
2022-11-08T09:58:17.047Z,12.78
2022-11-08T09:59:18.316Z,12.64
2022-11-08T10:00:19.756Z,12.65
2022-11-08T10:01:26.902Z,13.06
2022-11-08T10:02:28.988Z,14.15
2022-11-08T10:03:30.748Z,14.23
2022-11-08T10:04:33.382Z,13.87
2022-11-08T10:05:47.130Z,13.82
2022-11-08T10:07:07.370Z,14.62
2022-11-08T10:08:39.992Z,15.21
2022-11-08T10:09:53.664Z,14.82
2022-11-08T10:11:16.340Z,14.07
2022-11-08T10:12:25.145Z,14.07
2022-11-08T10:13:32.010Z,14.28
2022-11-08T10:14:55.114Z,15.62
2022-11-08T10:16:06.856Z,15.82
2022-11-08T10:17:13.881Z,16.32
2022-11-08T10:18:44.333Z,18.20
2022-11-08T10:20:07.549Z,17.17
2022-11-08T10:21:21.637Z,17.82
2022-11-08T10:22:35.896Z,18.94
2022-11-08T10:24:02.093Z,18.30
2022-11-08T10:25:20.023Z,16.19
2022-11-08T10:26:29.437Z,15.98
2022-11-08T10:27:38.061Z,16.14
2022-11-08T10:28:50.418Z,16.26
2022-11-08T10:30:00.157Z,15.25
2022-11-08T10:31:02.413Z,15.29
2022-11-08T10:32:14.587Z,15.46
2022-11-08T10:33:21.667Z,15.58
2022-11-08T10:34:27.831Z,15.68
2022-11-08T10:35:45.296Z,15.85
2022-11-08T10:36:48.438Z,16.82
2022-11-08T10:37:52.027Z,17.89
2022-11-08T10:39:11.417Z,18.26
2022-11-08T10:40:30.072Z,18.58
2022-11-08T10:41:54.187Z,19.87
2022-11-08T10:43:09.309Z,20.77
2022-11-08T10:44:24.291Z,21.07
2022-11-08T10:45:25.656Z,20.83
2022-11-08T10:46:44.681Z,21.30
2022-11-08T10:47:47.035Z,21.23
2022-11-08T10:48:48.424Z,20.79
2022-11-08T10:49:49.973Z,20.73
2022-11-08T10:50:52.635Z,18.96
2022-11-08T10:51:56.938Z,19.48
2022-11-08T10:53:00.732Z,19.05
2022-11-08T10:54:02.169Z,17.82
2022-11-08T10:55:07.975Z,17.14
2022-11-08T10:56:09.309Z,17.08
2022-11-08T10:57:17.755Z,17.86
2022-11-08T10:58:32.818Z,17.48
2022-11-08T10:59:34.384Z,17.34
2022-11-08T11:00:35.968Z,16.64
2022-11-08T11:01:49.771Z,16.93
2022-11-08T11:02:59.710Z,17.74
2022-11-08T11:04:29.183Z,18.10
2022-11-08T11:05:41.047Z,19.87
2022-11-08T11:06:42.464Z,20.74
2022-11-08T11:08:00.684Z,21.72
2022-11-08T11:09:20.407Z,21.54
2022-11-08T11:10:34.387Z,21.69
2022-11-08T11:11:38.005Z,22.37
2022-11-08T11:12:39.344Z,22.17
2022-11-08T11:13:40.726Z,22.70
2022-11-08T11:14:42.243Z,22.64
2022-11-08T11:16:05.306Z,22.10
2022-11-08T11:17:17.623Z,21.16
2022-11-08T11:18:30.474Z,21.03
2022-11-08T11:19:32.044Z,21.97
2022-11-08T11:20:33.514Z,21.49
2022-11-08T11:21:38.268Z,20.99
2022-11-08T11:22:45.323Z,20.70
2022-11-08T11:23:52.492Z,20.65
2022-11-08T11:24:55.172Z,19.74
2022-11-08T11:25:56.496Z,17.92
2022-11-08T11:26:57.775Z,18.69
2022-11-08T11:28:00.549Z,18.71
2022-11-08T11:29:15.003Z,18.38
2022-11-08T11:30:32.594Z,18.32
2022-11-08T11:31:37.849Z,17.97
2022-11-08T11:32:39.953Z,18.26
2022-11-08T11:33:49.311Z,18.26
2022-11-08T11:34:54.724Z,17.92
2022-11-08T11:36:07.025Z,18.16
2022-11-08T11:37:10.673Z,19.01
2022-11-08T11:38:28.018Z,20.37
2022-11-08T11:39:49.499Z,19.48
2022-11-08T11:40:55.811Z,18.44
2022-11-08T11:42:39.185Z,18.15
2022-11-08T11:44:03.518Z,18.12
2022-11-08T11:45:18.527Z,18.23
2022-11-08T11:46:40.278Z,17.61
2022-11-08T11:47:50.865Z,17.54
2022-11-08T11:48:59.767Z,17.20
2022-11-08T11:50:12.355Z,16.95
2022-11-08T11:51:17.162Z,16.87
2022-11-08T11:52:19.497Z,16.74
2022-11-08T11:53:25.169Z,16.64
2022-11-08T11:54:34.647Z,16.63
2022-11-08T11:55:49.127Z,16.77
2022-11-08T11:57:02.880Z,16.37
2022-11-08T11:58:46.739Z,16.40
2022-11-08T12:00:10.160Z,16.42
2022-11-08T12:01:17.676Z,16.36
2022-11-08T12:02:41.073Z,16.48
2022-11-08T12:04:25.374Z,16.80
2022-11-08T12:05:45.324Z,16.73
2022-11-08T12:07:11.786Z,16.81
2022-11-08T12:08:42.064Z,16.60
2022-11-08T12:10:22.351Z,16.66
2022-11-08T12:12:17.503Z,16.67
2022-11-08T12:13:30.688Z,16.44
2022-11-08T12:14:51.298Z,16.31
2022-11-08T12:15:57.135Z,16.26
2022-11-08T12:17:23.978Z,16.22
2022-11-08T12:18:49.995Z,16.03
2022-11-08T12:20:26.817Z,15.83
2022-11-08T12:21:45.608Z,15.91
2022-11-08T12:23:08.318Z,15.77
2022-11-08T12:24:27.952Z,15.67
2022-11-08T12:25:49.715Z,15.67
2022-11-08T12:27:01.691Z,15.72
2022-11-08T12:28:23.742Z,15.74
2022-11-08T12:29:59.472Z,15.63
2022-11-08T12:31:13.396Z,15.67
2022-11-08T12:32:32.750Z,15.55
2022-11-08T12:33:42.140Z,15.48
2022-11-08T12:34:58.891Z,15.55
2022-11-08T12:36:18.346Z,15.53
2022-11-08T12:37:50.316Z,15.49
2022-11-08T12:38:54.208Z,15.60
2022-11-08T12:40:00.764Z,15.63
2022-11-08T12:41:23.468Z,15.62
2022-11-08T12:42:56.144Z,15.65
2022-11-08T12:44:18.007Z,15.72
2022-11-08T12:45:57.401Z,15.78
2022-11-08T12:47:10.937Z,15.83
2022-11-08T12:48:25.372Z,15.78
2022-11-08T12:49:51.497Z,15.66
2022-11-08T12:51:17.607Z,15.72
2022-11-08T12:52:25.627Z,15.73
2022-11-08T12:53:38.801Z,15.71
2022-11-08T12:54:48.140Z,15.57
2022-11-08T12:55:54.440Z,15.66
2022-11-08T12:57:01.593Z,15.59
2022-11-08T12:58:38.999Z,15.72
2022-11-08T12:59:44.948Z,15.78
2022-11-08T13:02:21.366Z,15.94
2022-11-08T13:04:03.221Z,15.75
2022-11-08T13:05:25.663Z,15.89
2022-11-08T13:06:43.339Z,15.71
2022-11-08T13:07:57.396Z,15.71
2022-11-08T13:09:27.792Z,15.68
2022-11-08T13:10:33.940Z,15.65
2022-11-08T13:11:59.595Z,15.61
2022-11-08T13:13:20.447Z,15.65
2022-11-08T13:14:23.617Z,15.66
2022-11-08T13:15:26.094Z,15.59
2022-11-08T13:16:33.881Z,15.71
2022-11-08T13:17:38.577Z,15.62
2022-11-08T13:18:51.205Z,15.61
2022-11-08T13:19:53.999Z,15.64
2022-11-08T13:20:56.412Z,15.51
2022-11-08T13:21:57.863Z,15.51
2022-11-08T13:23:00.923Z,15.48
2022-11-08T13:24:09.910Z,15.41
2022-11-08T13:25:18.615Z,15.26
2022-11-08T13:26:25.996Z,15.21
2022-11-08T13:27:41.636Z,15.30
2022-11-08T13:28:47.245Z,15.35
2022-11-08T13:29:48.918Z,15.24
2022-11-08T13:31:02.108Z,15.35
2022-11-08T13:32:10.988Z,15.23
2022-11-08T13:33:26.647Z,15.29
2022-11-08T13:34:54.827Z,15.19
2022-11-08T13:36:15.185Z,15.25
2022-11-08T13:37:50.331Z,15.16
2022-11-08T13:39:10.536Z,15.10
2022-11-08T13:40:18.039Z,15.08
2022-11-08T13:41:22.344Z,14.90
2022-11-08T13:42:23.615Z,15.08
2022-11-08T13:43:34.747Z,15.06
2022-11-08T13:44:54.502Z,14.99
2022-11-08T13:46:16.217Z,14.99
2022-11-08T13:47:32.710Z,15.01
2022-11-08T13:48:37.156Z,14.88
2022-11-08T13:49:38.551Z,14.83
2022-11-08T13:50:48.399Z,14.89
2022-11-08T13:51:51.439Z,14.91
2022-11-08T13:53:07.990Z,14.90
2022-11-08T13:54:21.842Z,14.82
2022-11-08T13:55:41.451Z,14.84
2022-11-08T13:56:51.619Z,14.85
2022-11-08T13:58:02.034Z,14.87
2022-11-08T14:46:43.812Z,14.57
2022-11-08T14:47:46.190Z,14.38
2022-11-08T14:48:59.555Z,14.53
2022-11-08T14:50:00.876Z,14.52
2022-11-08T14:51:05.615Z,14.51
2022-11-08T14:52:16.866Z,14.50
2022-11-08T14:53:30.224Z,14.31
2022-11-08T14:54:40.434Z,14.40
2022-11-08T14:55:41.916Z,14.43
2022-11-08T14:56:44.968Z,14.42
2022-11-08T14:57:46.687Z,14.39
2022-11-08T14:58:49.712Z,14.28
2022-11-08T16:00:27.584Z,12.68
